sensor_id;sensor_type;location;lat;lon;timestamp;P1;durP1;ratioP1;P2;durP2;ratioP2
20749;SDS011;10535;50.664;4.564;2022-08-20T00:00:17;3.40;;;2.00;;
20749;SDS011;10535;50.664;4.564;2022-08-20T00:02:48;1.93;;;1.50;;
20749;SDS011;10535;50.664;4.564;2022-08-20T00:05:22;5.13;;;2.27;;
20749;SDS011;10535;50.664;4.564;2022-08-20T00:07:53;4.00;;;1.40;;
20749;SDS011;10535;50.664;4.564;2022-08-20T00:10:18;4.70;;;2.37;;
20749;SDS011;10535;50.664;4.564;2022-08-20T00:12:45;3.13;;;2.00;;
20749;SDS011;10535;50.664;4.564;2022-08-20T00:15:14;3.83;;;1.93;;
20749;SDS011;10535;50.664;4.564;2022-08-20T00:17:41;4.53;;;1.77;;
20749;SDS011;10535;50.664;4.564;2022-08-20T00:20:08;3.37;;;1.87;;
20749;SDS011;10535;50.664;4.564;2022-08-20T00:22:35;6.90;;;2.23;;
20749;SDS011;10535;50.664;4.564;2022-08-20T00:25:02;4.47;;;2.43;;
20749;SDS011;10535;50.664;4.564;2022-08-20T00:27:29;3.60;;;2.10;;
20749;SDS011;10535;50.664;4.564;2022-08-20T00:29:55;5.27;;;2.07;;
20749;SDS011;10535;50.664;4.564;2022-08-20T00:32:21;5.33;;;2.07;;
20749;SDS011;10535;50.664;4.564;2022-08-20T00:34:47;3.53;;;2.20;;
20749;SDS011;10535;50.664;4.564;2022-08-20T00:37:13;2.43;;;2.00;;
20749;SDS011;10535;50.664;4.564;2022-08-20T00:39:39;3.10;;;1.80;;
20749;SDS011;10535;50.664;4.564;2022-08-20T00:42:05;2.70;;;1.93;;
20749;SDS011;10535;50.664;4.564;2022-08-20T00:44:31;3.97;;;1.70;;
20749;SDS011;10535;50.664;4.564;2022-08-20T00:46:57;3.80;;;1.47;;
20749;SDS011;10535;50.664;4.564;2022-08-20T00:49:24;2.37;;;2.00;;
20749;SDS011;10535;50.664;4.564;2022-08-20T00:52:03;4.13;;;1.97;;
20749;SDS011;10535;50.664;4.564;2022-08-20T00:57:06;4.30;;;2.43;;
20749;SDS011;10535;50.664;4.564;2022-08-20T00:59:36;2.87;;;1.40;;
20749;SDS011;10535;50.664;4.564;2022-08-20T01:02:06;4.70;;;1.70;;
20749;SDS011;10535;50.664;4.564;2022-08-20T01:04:35;4.27;;;1.63;;
20749;SDS011;10535;50.664;4.564;2022-08-20T01:07:03;3.03;;;2.40;;
20749;SDS011;10535;50.664;4.564;2022-08-20T01:09:31;1.93;;;1.60;;
20749;SDS011;10535;50.664;4.564;2022-08-20T01:11:57;4.93;;;1.73;;
20749;SDS011;10535;50.664;4.564;2022-08-20T01:14:23;3.03;;;1.87;;
20749;SDS011;10535;50.664;4.564;2022-08-20T01:16:53;5.43;;;2.60;;
20749;SDS011;10535;50.664;4.564;2022-08-20T01:19:23;4.10;;;1.40;;
20749;SDS011;10535;50.664;4.564;2022-08-20T01:21:54;7.87;;;2.27;;
20749;SDS011;10535;50.664;4.564;2022-08-20T01:24:21;7.20;;;3.13;;
20749;SDS011;10535;50.664;4.564;2022-08-20T01:26:59;7.27;;;2.43;;
20749;SDS011;10535;50.664;4.564;2022-08-20T01:29:28;10.07;;;3.57;;
20749;SDS011;10535;50.664;4.564;2022-08-20T01:31:59;4.80;;;2.90;;
20749;SDS011;10535;50.664;4.564;2022-08-20T01:34:26;5.50;;;3.33;;
20749;SDS011;10535;50.664;4.564;2022-08-20T01:36:54;8.60;;;2.97;;
20749;SDS011;10535;50.664;4.564;2022-08-20T01:39:23;5.23;;;2.73;;
20749;SDS011;10535;50.664;4.564;2022-08-20T01:44:47;8.17;;;2.97;;
20749;SDS011;10535;50.664;4.564;2022-08-20T01:47:21;10.17;;;3.77;;
20749;SDS011;10535;50.664;4.564;2022-08-20T01:49:54;7.33;;;4.27;;
20749;SDS011;10535;50.664;4.564;2022-08-20T01:55:09;5.70;;;2.87;;
20749;SDS011;10535;50.664;4.564;2022-08-20T01:57:35;6.83;;;3.27;;
20749;SDS011;10535;50.664;4.564;2022-08-20T02:00:06;8.73;;;3.63;;
20749;SDS011;10535;50.664;4.564;2022-08-20T02:02:35;20.80;;;4.33;;
20749;SDS011;10535;50.664;4.564;2022-08-20T02:05:01;9.67;;;3.23;;
20749;SDS011;10535;50.664;4.564;2022-08-20T02:07:28;5.80;;;3.17;;
20749;SDS011;10535;50.664;4.564;2022-08-20T02:09:56;7.50;;;3.23;;
20749;SDS011;10535;50.664;4.564;2022-08-20T02:12:22;8.67;;;3.40;;
20749;SDS011;10535;50.664;4.564;2022-08-20T02:14:48;8.17;;;2.77;;
20749;SDS011;10535;50.664;4.564;2022-08-20T02:17:16;4.67;;;2.80;;
20749;SDS011;10535;50.664;4.564;2022-08-20T02:19:48;6.07;;;3.10;;
20749;SDS011;10535;50.664;4.564;2022-08-20T02:25:01;6.97;;;3.20;;
20749;SDS011;10535;50.664;4.564;2022-08-20T02:27:29;8.73;;;2.80;;
20749;SDS011;10535;50.664;4.564;2022-08-20T02:29:55;8.43;;;2.93;;
20749;SDS011;10535;50.664;4.564;2022-08-20T02:32:21;4.57;;;1.80;;
20749;SDS011;10535;50.664;4.564;2022-08-20T02:34:47;6.47;;;2.60;;
20749;SDS011;10535;50.664;4.564;2022-08-20T02:37:13;8.27;;;3.10;;
20749;SDS011;10535;50.664;4.564;2022-08-20T02:39:40;4.10;;;2.27;;
20749;SDS011;10535;50.664;4.564;2022-08-20T02:42:06;6.77;;;3.33;;
20749;SDS011;10535;50.664;4.564;2022-08-20T02:44:33;8.80;;;2.93;;
20749;SDS011;10535;50.664;4.564;2022-08-20T02:46:59;5.37;;;2.20;;
20749;SDS011;10535;50.664;4.564;2022-08-20T02:49:25;5.67;;;2.63;;
20749;SDS011;10535;50.664;4.564;2022-08-20T02:51:51;6.50;;;2.03;;
20749;SDS011;10535;50.664;4.564;2022-08-20T02:54:17;8.27;;;3.10;;
20749;SDS011;10535;50.664;4.564;2022-08-20T02:56:42;12.47;;;2.57;;
20749;SDS011;10535;50.664;4.564;2022-08-20T02:59:08;5.60;;;2.33;;
20749;SDS011;10535;50.664;4.564;2022-08-20T03:01:34;8.60;;;2.33;;
20749;SDS011;10535;50.664;4.564;2022-08-20T03:04:00;10.53;;;2.73;;
20749;SDS011;10535;50.664;4.564;2022-08-20T03:06:28;6.67;;;2.50;;
20749;SDS011;10535;50.664;4.564;2022-08-20T03:08:53;9.57;;;2.43;;
20749;SDS011;10535;50.664;4.564;2022-08-20T03:11:19;10.67;;;3.40;;
20749;SDS011;10535;50.664;4.564;2022-08-20T03:13:45;5.80;;;2.87;;
20749;SDS011;10535;50.664;4.564;2022-08-20T03:16:11;6.87;;;2.27;;
20749;SDS011;10535;50.664;4.564;2022-08-20T03:18:40;7.50;;;2.67;;
20749;SDS011;10535;50.664;4.564;2022-08-20T03:21:09;6.10;;;2.70;;
20749;SDS011;10535;50.664;4.564;2022-08-20T03:23:36;5.47;;;2.00;;
20749;SDS011;10535;50.664;4.564;2022-08-20T03:26:03;6.77;;;2.63;;
20749;SDS011;10535;50.664;4.564;2022-08-20T03:28:31;11.60;;;2.83;;
20749;SDS011;10535;50.664;4.564;2022-08-20T03:30:56;8.60;;;2.43;;
20749;SDS011;10535;50.664;4.564;2022-08-20T03:33:23;7.17;;;2.10;;
20749;SDS011;10535;50.664;4.564;2022-08-20T03:35:49;7.40;;;2.17;;
20749;SDS011;10535;50.664;4.564;2022-08-20T03:38:16;4.63;;;2.30;;
20749;SDS011;10535;50.664;4.564;2022-08-20T03:40:43;9.07;;;2.77;;
20749;SDS011;10535;50.664;4.564;2022-08-20T03:43:09;12.70;;;2.60;;
20749;SDS011;10535;50.664;4.564;2022-08-20T03:45:36;4.47;;;2.40;;
20749;SDS011;10535;50.664;4.564;2022-08-20T03:48:03;7.77;;;2.53;;
20749;SDS011;10535;50.664;4.564;2022-08-20T03:50:31;4.13;;;2.10;;
20749;SDS011;10535;50.664;4.564;2022-08-20T03:52:58;4.03;;;1.80;;
20749;SDS011;10535;50.664;4.564;2022-08-20T03:55:25;14.20;;;4.10;;
20749;SDS011;10535;50.664;4.564;2022-08-20T03:57:54;5.67;;;2.30;;
20749;SDS011;10535;50.664;4.564;2022-08-20T04:00:24;6.77;;;3.10;;
20749;SDS011;10535;50.664;4.564;2022-08-20T04:02:52;6.70;;;2.50;;
20749;SDS011;10535;50.664;4.564;2022-08-20T04:05:20;6.97;;;2.83;;
20749;SDS011;10535;50.664;4.564;2022-08-20T04:07:46;11.27;;;3.27;;
20749;SDS011;10535;50.664;4.564;2022-08-20T04:10:11;11.67;;;3.37;;
20749;SDS011;10535;50.664;4.564;2022-08-20T04:12:38;8.07;;;2.47;;
20749;SDS011;10535;50.664;4.564;2022-08-20T04:15:07;8.23;;;2.33;;
20749;SDS011;10535;50.664;4.564;2022-08-20T04:17:37;11.63;;;3.13;;
20749;SDS011;10535;50.664;4.564;2022-08-20T04:20:06;11.03;;;2.93;;
20749;SDS011;10535;50.664;4.564;2022-08-20T04:22:34;4.20;;;2.20;;
20749;SDS011;10535;50.664;4.564;2022-08-20T04:24:59;7.47;;;2.80;;
20749;SDS011;10535;50.664;4.564;2022-08-20T04:27:25;9.67;;;2.87;;
20749;SDS011;10535;50.664;4.564;2022-08-20T04:29:51;8.63;;;3.03;;
20749;SDS011;10535;50.664;4.564;2022-08-20T04:32:16;7.63;;;3.03;;
20749;SDS011;10535;50.664;4.564;2022-08-20T04:34:42;4.07;;;2.73;;
20749;SDS011;10535;50.664;4.564;2022-08-20T04:37:08;7.67;;;3.50;;
20749;SDS011;10535;50.664;4.564;2022-08-20T04:39:35;9.90;;;3.30;;
20749;SDS011;10535;50.664;4.564;2022-08-20T04:42:01;7.97;;;3.77;;
20749;SDS011;10535;50.664;4.564;2022-08-20T04:44:26;9.37;;;2.97;;
20749;SDS011;10535;50.664;4.564;2022-08-20T04:46:52;11.43;;;3.17;;
20749;SDS011;10535;50.664;4.564;2022-08-20T04:49:18;7.20;;;3.43;;
20749;SDS011;10535;50.664;4.564;2022-08-20T04:51:46;9.13;;;3.27;;
20749;SDS011;10535;50.664;4.564;2022-08-20T04:54:12;12.90;;;2.80;;
20749;SDS011;10535;50.664;4.564;2022-08-20T04:56:38;16.80;;;3.87;;
20749;SDS011;10535;50.664;4.564;2022-08-20T04:59:04;4.97;;;2.83;;
20749;SDS011;10535;50.664;4.564;2022-08-20T05:01:30;10.50;;;3.23;;
20749;SDS011;10535;50.664;4.564;2022-08-20T05:03:57;10.70;;;3.30;;
20749;SDS011;10535;50.664;4.564;2022-08-20T05:06:27;8.40;;;3.07;;
20749;SDS011;10535;50.664;4.564;2022-08-20T05:08:55;11.43;;;2.87;;
20749;SDS011;10535;50.664;4.564;2022-08-20T05:11:22;11.57;;;3.97;;
20749;SDS011;10535;50.664;4.564;2022-08-20T05:13:49;12.10;;;2.80;;
20749;SDS011;10535;50.664;4.564;2022-08-20T05:16:16;10.13;;;3.00;;
20749;SDS011;10535;50.664;4.564;2022-08-20T05:18:42;6.43;;;2.80;;
20749;SDS011;10535;50.664;4.564;2022-08-20T05:21:09;11.47;;;3.20;;
20749;SDS011;10535;50.664;4.564;2022-08-20T05:23:36;10.33;;;3.33;;
20749;SDS011;10535;50.664;4.564;2022-08-20T05:26:05;5.03;;;2.70;;
20749;SDS011;10535;50.664;4.564;2022-08-20T05:28:32;13.17;;;3.80;;
20749;SDS011;10535;50.664;4.564;2022-08-20T05:30:59;6.70;;;3.27;;
20749;SDS011;10535;50.664;4.564;2022-08-20T05:33:27;5.40;;;2.33;;
20749;SDS011;10535;50.664;4.564;2022-08-20T05:35:54;8.47;;;3.43;;
20749;SDS011;10535;50.664;4.564;2022-08-20T05:38:25;6.53;;;3.70;;
20749;SDS011;10535;50.664;4.564;2022-08-20T05:40:52;9.43;;;2.63;;
20749;SDS011;10535;50.664;4.564;2022-08-20T05:43:19;8.33;;;3.07;;
20749;SDS011;10535;50.664;4.564;2022-08-20T05:45:46;6.20;;;2.83;;
20749;SDS011;10535;50.664;4.564;2022-08-20T05:48:17;8.37;;;2.63;;
20749;SDS011;10535;50.664;4.564;2022-08-20T05:50:47;11.53;;;2.93;;
20749;SDS011;10535;50.664;4.564;2022-08-20T05:53:14;6.00;;;2.60;;
20749;SDS011;10535;50.664;4.564;2022-08-20T05:55:41;6.47;;;2.97;;
20749;SDS011;10535;50.664;4.564;2022-08-20T05:58:08;6.33;;;3.27;;
20749;SDS011;10535;50.664;4.564;2022-08-20T06:00:40;14.27;;;3.00;;
20749;SDS011;10535;50.664;4.564;2022-08-20T06:03:06;6.03;;;3.10;;
20749;SDS011;10535;50.664;4.564;2022-08-20T06:05:50;7.10;;;3.50;;
20749;SDS011;10535;50.664;4.564;2022-08-20T06:08:16;11.03;;;3.67;;
20749;SDS011;10535;50.664;4.564;2022-08-20T06:10:42;8.87;;;2.90;;
20749;SDS011;10535;50.664;4.564;2022-08-20T06:13:08;10.57;;;3.03;;
20749;SDS011;10535;50.664;4.564;2022-08-20T06:15:34;9.73;;;2.77;;
20749;SDS011;10535;50.664;4.564;2022-08-20T06:18:00;7.60;;;3.30;;
20749;SDS011;10535;50.664;4.564;2022-08-20T06:20:31;4.87;;;2.67;;
20749;SDS011;10535;50.664;4.564;2022-08-20T06:22:57;10.53;;;3.30;;
20749;SDS011;10535;50.664;4.564;2022-08-20T06:25:23;7.63;;;2.77;;
20749;SDS011;10535;50.664;4.564;2022-08-20T06:27:49;11.40;;;3.13;;
20749;SDS011;10535;50.664;4.564;2022-08-20T06:30:14;7.23;;;3.13;;
20749;SDS011;10535;50.664;4.564;2022-08-20T06:32:41;13.80;;;3.10;;
20749;SDS011;10535;50.664;4.564;2022-08-20T06:35:07;4.97;;;2.30;;
20749;SDS011;10535;50.664;4.564;2022-08-20T06:37:35;9.10;;;3.70;;
20749;SDS011;10535;50.664;4.564;2022-08-20T06:40:06;6.53;;;2.07;;
20749;SDS011;10535;50.664;4.564;2022-08-20T06:42:43;10.10;;;3.60;;
20749;SDS011;10535;50.664;4.564;2022-08-20T06:45:10;8.07;;;3.40;;
20749;SDS011;10535;50.664;4.564;2022-08-20T06:47:39;12.07;;;3.10;;
20749;SDS011;10535;50.664;4.564;2022-08-20T06:50:09;10.57;;;3.43;;
20749;SDS011;10535;50.664;4.564;2022-08-20T06:52:38;13.33;;;3.60;;
20749;SDS011;10535;50.664;4.564;2022-08-20T06:55:07;11.00;;;3.60;;
20749;SDS011;10535;50.664;4.564;2022-08-20T06:57:35;18.50;;;4.53;;
20749;SDS011;10535;50.664;4.564;2022-08-20T07:00:09;9.87;;;3.67;;
20749;SDS011;10535;50.664;4.564;2022-08-20T07:02:38;7.67;;;3.10;;
20749;SDS011;10535;50.664;4.564;2022-08-20T07:05:04;7.30;;;2.97;;
20749;SDS011;10535;50.664;4.564;2022-08-20T07:07:31;10.33;;;3.80;;
20749;SDS011;10535;50.664;4.564;2022-08-20T07:10:06;7.40;;;3.33;;
20749;SDS011;10535;50.664;4.564;2022-08-20T07:12:33;15.30;;;4.67;;
20749;SDS011;10535;50.664;4.564;2022-08-20T07:15:00;9.60;;;4.70;;
20749;SDS011;10535;50.664;4.564;2022-08-20T07:17:31;11.17;;;4.43;;
20749;SDS011;10535;50.664;4.564;2022-08-20T07:19:57;11.13;;;3.80;;
20749;SDS011;10535;50.664;4.564;2022-08-20T07:22:22;14.10;;;6.07;;
20749;SDS011;10535;50.664;4.564;2022-08-20T07:24:49;12.60;;;4.60;;
20749;SDS011;10535;50.664;4.564;2022-08-20T07:27:19;11.70;;;5.00;;
20749;SDS011;10535;50.664;4.564;2022-08-20T07:29:46;12.77;;;5.40;;
20749;SDS011;10535;50.664;4.564;2022-08-20T07:32:31;12.00;;;4.40;;
20749;SDS011;10535;50.664;4.564;2022-08-20T07:35:02;10.67;;;4.23;;
20749;SDS011;10535;50.664;4.564;2022-08-20T07:37:29;13.30;;;3.93;;
20749;SDS011;10535;50.664;4.564;2022-08-20T07:39:54;6.73;;;3.90;;
20749;SDS011;10535;50.664;4.564;2022-08-20T07:42:20;8.03;;;3.13;;
20749;SDS011;10535;50.664;4.564;2022-08-20T07:44:45;10.80;;;3.70;;
20749;SDS011;10535;50.664;4.564;2022-08-20T07:47:11;5.57;;;3.83;;
20749;SDS011;10535;50.664;4.564;2022-08-20T07:49:37;7.80;;;3.53;;
20749;SDS011;10535;50.664;4.564;2022-08-20T07:52:04;11.13;;;3.93;;
20749;SDS011;10535;50.664;4.564;2022-08-20T07:54:30;8.90;;;4.07;;
20749;SDS011;10535;50.664;4.564;2022-08-20T07:56:59;5.83;;;3.27;;
20749;SDS011;10535;50.664;4.564;2022-08-20T07:59:28;9.90;;;4.93;;
20749;SDS011;10535;50.664;4.564;2022-08-20T08:01:54;4.97;;;3.27;;
20749;SDS011;10535;50.664;4.564;2022-08-20T08:04:20;11.17;;;3.33;;
20749;SDS011;10535;50.664;4.564;2022-08-20T08:06:47;10.10;;;3.40;;
20749;SDS011;10535;50.664;4.564;2022-08-20T08:09:13;9.70;;;3.47;;
20749;SDS011;10535;50.664;4.564;2022-08-20T08:11:41;10.03;;;3.10;;
20749;SDS011;10535;50.664;4.564;2022-08-20T08:14:10;11.03;;;4.07;;
20749;SDS011;10535;50.664;4.564;2022-08-20T08:16:37;4.97;;;2.63;;
20749;SDS011;10535;50.664;4.564;2022-08-20T08:19:03;6.30;;;2.67;;
20749;SDS011;10535;50.664;4.564;2022-08-20T08:21:31;9.20;;;2.20;;
20749;SDS011;10535;50.664;4.564;2022-08-20T08:23:57;6.63;;;3.13;;
20749;SDS011;10535;50.664;4.564;2022-08-20T08:26:23;5.07;;;2.80;;
20749;SDS011;10535;50.664;4.564;2022-08-20T08:28:50;7.10;;;2.60;;
20749;SDS011;10535;50.664;4.564;2022-08-20T08:31:15;6.53;;;2.53;;
20749;SDS011;10535;50.664;4.564;2022-08-20T08:33:41;8.50;;;2.90;;
20749;SDS011;10535;50.664;4.564;2022-08-20T08:36:11;7.37;;;2.60;;
20749;SDS011;10535;50.664;4.564;2022-08-20T08:38:38;10.63;;;3.37;;
20749;SDS011;10535;50.664;4.564;2022-08-20T08:41:13;5.07;;;2.50;;
20749;SDS011;10535;50.664;4.564;2022-08-20T08:46:30;6.13;;;3.13;;
20749;SDS011;10535;50.664;4.564;2022-08-20T08:48:59;4.37;;;2.57;;
20749;SDS011;10535;50.664;4.564;2022-08-20T08:51:36;4.77;;;1.70;;
20749;SDS011;10535;50.664;4.564;2022-08-20T08:54:26;6.07;;;2.80;;
20749;SDS011;10535;50.664;4.564;2022-08-20T08:56:54;6.57;;;2.00;;
20749;SDS011;10535;50.664;4.564;2022-08-20T08:59:20;5.23;;;1.97;;
20749;SDS011;10535;50.664;4.564;2022-08-20T09:01:53;5.60;;;1.87;;
20749;SDS011;10535;50.664;4.564;2022-08-20T09:04:29;6.03;;;1.57;;
20749;SDS011;10535;50.664;4.564;2022-08-20T09:06:58;3.97;;;1.83;;
20749;SDS011;10535;50.664;4.564;2022-08-20T09:09:30;2.27;;;1.60;;
20749;SDS011;10535;50.664;4.564;2022-08-20T09:12:03;5.03;;;2.10;;
20749;SDS011;10535;50.664;4.564;2022-08-20T09:14:34;4.13;;;1.87;;
20749;SDS011;10535;50.664;4.564;2022-08-20T09:17:00;6.70;;;2.03;;
20749;SDS011;10535;50.664;4.564;2022-08-20T09:19:26;6.80;;;1.97;;
20749;SDS011;10535;50.664;4.564;2022-08-20T09:21:51;4.13;;;1.50;;
20749;SDS011;10535;50.664;4.564;2022-08-20T09:24:17;3.13;;;1.53;;
20749;SDS011;10535;50.664;4.564;2022-08-20T09:26:43;5.63;;;1.70;;
20749;SDS011;10535;50.664;4.564;2022-08-20T09:29:08;6.67;;;1.83;;
20749;SDS011;10535;50.664;4.564;2022-08-20T09:31:34;2.17;;;0.90;;
20749;SDS011;10535;50.664;4.564;2022-08-20T09:34:00;2.40;;;1.63;;
20749;SDS011;10535;50.664;4.564;2022-08-20T09:36:26;6.30;;;1.27;;
20749;SDS011;10535;50.664;4.564;2022-08-20T09:38:51;3.93;;;1.50;;
20749;SDS011;10535;50.664;4.564;2022-08-20T09:41:18;3.17;;;1.20;;
20749;SDS011;10535;50.664;4.564;2022-08-20T09:43:43;5.43;;;1.70;;
20749;SDS011;10535;50.664;4.564;2022-08-20T09:46:09;4.23;;;1.10;;
20749;SDS011;10535;50.664;4.564;2022-08-20T09:48:35;7.87;;;1.80;;
20749;SDS011;10535;50.664;4.564;2022-08-20T09:51:01;8.17;;;1.80;;
20749;SDS011;10535;50.664;4.564;2022-08-20T09:53:27;1.40;;;1.20;;
20749;SDS011;10535;50.664;4.564;2022-08-20T09:55:54;1.70;;;0.90;;
20749;SDS011;10535;50.664;4.564;2022-08-20T10:00:49;2.73;;;1.50;;
20749;SDS011;10535;50.664;4.564;2022-08-20T10:03:15;5.40;;;1.47;;
20749;SDS011;10535;50.664;4.564;2022-08-20T10:05:41;4.10;;;1.37;;
20749;SDS011;10535;50.664;4.564;2022-08-20T10:08:07;6.40;;;1.43;;
20749;SDS011;10535;50.664;4.564;2022-08-20T10:10:34;4.93;;;1.33;;
20749;SDS011;10535;50.664;4.564;2022-08-20T10:13:00;4.33;;;1.47;;
20749;SDS011;10535;50.664;4.564;2022-08-20T10:15:26;4.10;;;1.67;;
20749;SDS011;10535;50.664;4.564;2022-08-20T10:17:53;2.38;;;1.23;;
20749;SDS011;10535;50.664;4.564;2022-08-20T10:20:21;2.38;;;1.10;;
20749;SDS011;10535;50.664;4.564;2022-08-20T10:22:48;3.43;;;1.20;;
20749;SDS011;10535;50.664;4.564;2022-08-20T10:25:14;4.75;;;1.45;;
20749;SDS011;10535;50.664;4.564;2022-08-20T10:27:41;6.47;;;1.75;;
20749;SDS011;10535;50.664;4.564;2022-08-20T10:30:07;9.90;;;1.80;;
20749;SDS011;10535;50.664;4.564;2022-08-20T10:32:34;2.83;;;1.35;;
20749;SDS011;10535;50.664;4.564;2022-08-20T10:34:59;3.28;;;1.20;;
20749;SDS011;10535;50.664;4.564;2022-08-20T10:37:25;2.63;;;1.10;;
20749;SDS011;10535;50.664;4.564;2022-08-20T10:39:51;8.95;;;1.60;;
20749;SDS011;10535;50.664;4.564;2022-08-20T10:42:18;4.30;;;1.30;;
20749;SDS011;10535;50.664;4.564;2022-08-20T10:44:43;4.13;;;1.30;;
20749;SDS011;10535;50.664;4.564;2022-08-20T10:47:17;3.07;;;1.30;;
20749;SDS011;10535;50.664;4.564;2022-08-20T10:49:48;3.67;;;1.87;;
20749;SDS011;10535;50.664;4.564;2022-08-20T10:52:15;2.90;;;1.03;;
20749;SDS011;10535;50.664;4.564;2022-08-20T10:54:41;3.57;;;1.47;;
20749;SDS011;10535;50.664;4.564;2022-08-20T10:57:18;3.63;;;1.40;;
20749;SDS011;10535;50.664;4.564;2022-08-20T10:59:49;4.43;;;1.75;;
20749;SDS011;10535;50.664;4.564;2022-08-20T11:02:16;5.03;;;1.23;;
20749;SDS011;10535;50.664;4.564;2022-08-20T11:04:43;3.73;;;1.17;;
20749;SDS011;10535;50.664;4.564;2022-08-20T11:07:13;4.70;;;1.40;;
20749;SDS011;10535;50.664;4.564;2022-08-20T11:09:58;5.77;;;1.53;;
20749;SDS011;10535;50.664;4.564;2022-08-20T11:12:24;4.20;;;1.30;;
20749;SDS011;10535;50.664;4.564;2022-08-20T11:14:50;2.60;;;1.17;;
20749;SDS011;10535;50.664;4.564;2022-08-20T11:17:23;2.37;;;1.57;;
20749;SDS011;10535;50.664;4.564;2022-08-20T11:19:51;3.97;;;1.65;;
20749;SDS011;10535;50.664;4.564;2022-08-20T11:22:17;2.25;;;1.38;;
20749;SDS011;10535;50.664;4.564;2022-08-20T11:24:43;1.83;;;1.23;;
20749;SDS011;10535;50.664;4.564;2022-08-20T11:27:09;1.67;;;0.88;;
20749;SDS011;10535;50.664;4.564;2022-08-20T11:29:36;2.50;;;1.50;;
20749;SDS011;10535;50.664;4.564;2022-08-20T11:32:02;4.18;;;2.03;;
20749;SDS011;10535;50.664;4.564;2022-08-20T11:34:29;4.72;;;1.48;;
20749;SDS011;10535;50.664;4.564;2022-08-20T11:36:55;2.10;;;0.90;;
20749;SDS011;10535;50.664;4.564;2022-08-20T11:39:23;4.85;;;1.58;;
20749;SDS011;10535;50.664;4.564;2022-08-20T11:41:49;3.45;;;1.73;;
20749;SDS011;10535;50.664;4.564;2022-08-20T11:44:14;2.65;;;1.33;;
20749;SDS011;10535;50.664;4.564;2022-08-20T11:46:40;1.50;;;1.10;;
20749;SDS011;10535;50.664;4.564;2022-08-20T11:49:05;2.30;;;1.40;;
20749;SDS011;10535;50.664;4.564;2022-08-20T11:51:31;7.03;;;1.55;;
20749;SDS011;10535;50.664;4.564;2022-08-20T11:53:57;2.20;;;1.17;;
20749;SDS011;10535;50.664;4.564;2022-08-20T11:56:23;4.97;;;2.10;;
20749;SDS011;10535;50.664;4.564;2022-08-20T11:58:48;4.40;;;1.30;;
20749;SDS011;10535;50.664;4.564;2022-08-20T12:01:14;4.95;;;1.83;;
20749;SDS011;10535;50.664;4.564;2022-08-20T12:03:40;3.53;;;1.43;;
20749;SDS011;10535;50.664;4.564;2022-08-20T12:06:05;3.80;;;2.00;;
20749;SDS011;10535;50.664;4.564;2022-08-20T12:08:31;4.13;;;1.50;;
20749;SDS011;10535;50.664;4.564;2022-08-20T12:10:57;6.88;;;1.65;;
20749;SDS011;10535;50.664;4.564;2022-08-20T12:13:26;2.22;;;1.17;;
20749;SDS011;10535;50.664;4.564;2022-08-20T12:15:53;7.68;;;1.35;;
20749;SDS011;10535;50.664;4.564;2022-08-20T12:18:19;5.22;;;1.60;;
20749;SDS011;10535;50.664;4.564;2022-08-20T12:20:45;4.28;;;1.90;;
20749;SDS011;10535;50.664;4.564;2022-08-20T12:23:11;4.55;;;1.38;;
20749;SDS011;10535;50.664;4.564;2022-08-20T12:25:37;4.32;;;1.40;;
20749;SDS011;10535;50.664;4.564;2022-08-20T12:28:03;2.97;;;1.40;;
20749;SDS011;10535;50.664;4.564;2022-08-20T12:30:29;2.22;;;1.10;;
20749;SDS011;10535;50.664;4.564;2022-08-20T12:32:56;6.75;;;1.70;;
20749;SDS011;10535;50.664;4.564;2022-08-20T12:35:22;8.77;;;2.67;;
20749;SDS011;10535;50.664;4.564;2022-08-20T12:37:48;3.38;;;1.58;;
20749;SDS011;10535;50.664;4.564;2022-08-20T12:40:15;3.75;;;1.40;;
20749;SDS011;10535;50.664;4.564;2022-08-20T12:42:44;4.82;;;1.60;;
20749;SDS011;10535;50.664;4.564;2022-08-20T12:45:10;5.43;;;1.20;;
20749;SDS011;10535;50.664;4.564;2022-08-20T12:47:37;8.52;;;2.08;;
20749;SDS011;10535;50.664;4.564;2022-08-20T12:50:10;5.63;;;2.08;;
20749;SDS011;10535;50.664;4.564;2022-08-20T12:52:37;8.30;;;1.67;;
20749;SDS011;10535;50.664;4.564;2022-08-20T12:55:03;2.45;;;1.02;;
20749;SDS011;10535;50.664;4.564;2022-08-20T12:57:31;5.03;;;1.75;;
20749;SDS011;10535;50.664;4.564;2022-08-20T13:00:07;2.25;;;0.95;;
20749;SDS011;10535;50.664;4.564;2022-08-20T13:02:45;4.72;;;1.80;;
20749;SDS011;10535;50.664;4.564;2022-08-20T13:05:12;2.78;;;1.23;;
20749;SDS011;10535;50.664;4.564;2022-08-20T13:07:38;1.70;;;1.15;;
20749;SDS011;10535;50.664;4.564;2022-08-20T13:10:06;4.90;;;1.33;;
20749;SDS011;10535;50.664;4.564;2022-08-20T13:12:33;2.20;;;1.13;;
20749;SDS011;10535;50.664;4.564;2022-08-20T13:14:59;5.75;;;1.80;;
20749;SDS011;10535;50.664;4.564;2022-08-20T13:17:25;2.25;;;1.10;;
20749;SDS011;10535;50.664;4.564;2022-08-20T13:19:50;3.40;;;1.02;;
20749;SDS011;10535;50.664;4.564;2022-08-20T13:22:16;2.55;;;0.70;;
20749;SDS011;10535;50.664;4.564;2022-08-20T13:24:42;5.85;;;1.90;;
20749;SDS011;10535;50.664;4.564;2022-08-20T13:27:09;5.57;;;1.45;;
20749;SDS011;10535;50.664;4.564;2022-08-20T13:29:37;2.50;;;1.25;;
20749;SDS011;10535;50.664;4.564;2022-08-20T13:32:03;2.25;;;1.10;;
20749;SDS011;10535;50.664;4.564;2022-08-20T13:34:29;1.00;;;0.82;;
20749;SDS011;10535;50.664;4.564;2022-08-20T13:36:55;1.88;;;1.10;;
20749;SDS011;10535;50.664;4.564;2022-08-20T13:39:21;2.40;;;1.08;;
20749;SDS011;10535;50.664;4.564;2022-08-20T13:41:47;1.67;;;0.80;;
20749;SDS011;10535;50.664;4.564;2022-08-20T13:44:13;4.47;;;0.90;;
20749;SDS011;10535;50.664;4.564;2022-08-20T13:46:39;3.17;;;1.17;;
20749;SDS011;10535;50.664;4.564;2022-08-20T13:49:05;2.75;;;1.17;;
20749;SDS011;10535;50.664;4.564;2022-08-20T13:51:31;2.78;;;0.90;;
20749;SDS011;10535;50.664;4.564;2022-08-20T13:53:56;2.08;;;0.85;;
20749;SDS011;10535;50.664;4.564;2022-08-20T13:56:22;10.98;;;1.80;;
20749;SDS011;10535;50.664;4.564;2022-08-20T13:58:48;2.53;;;1.00;;
20749;SDS011;10535;50.664;4.564;2022-08-20T14:01:13;0.85;;;0.85;;
20749;SDS011;10535;50.664;4.564;2022-08-20T14:03:39;5.07;;;1.73;;
20749;SDS011;10535;50.664;4.564;2022-08-20T14:06:05;1.98;;;0.88;;
20749;SDS011;10535;50.664;4.564;2022-08-20T14:08:33;1.40;;;0.80;;
20749;SDS011;10535;50.664;4.564;2022-08-20T14:10:59;1.33;;;0.43;;
20749;SDS011;10535;50.664;4.564;2022-08-20T14:13:25;2.40;;;0.70;;
20749;SDS011;10535;50.664;4.564;2022-08-20T14:15:51;2.23;;;1.33;;
20749;SDS011;10535;50.664;4.564;2022-08-20T14:18:17;4.75;;;1.30;;
20749;SDS011;10535;50.664;4.564;2022-08-20T14:20:43;2.28;;;0.77;;
20749;SDS011;10535;50.664;4.564;2022-08-20T14:23:10;3.42;;;1.02;;
20749;SDS011;10535;50.664;4.564;2022-08-20T14:25:35;5.00;;;0.98;;
20749;SDS011;10535;50.664;4.564;2022-08-20T14:28:35;0.88;;;0.88;;
20749;SDS011;10535;50.664;4.564;2022-08-20T14:30:53;2.40;;;0.73;;
20749;SDS011;10535;50.664;4.564;2022-08-20T14:33:20;1.52;;;0.90;;
20749;SDS011;10535;50.664;4.564;2022-08-20T14:35:46;1.83;;;0.80;;
20749;SDS011;10535;50.664;4.564;2022-08-20T14:38:12;1.10;;;0.60;;
20749;SDS011;10535;50.664;4.564;2022-08-20T14:40:38;4.43;;;1.42;;
20749;SDS011;10535;50.664;4.564;2022-08-20T14:43:04;0.85;;;0.60;;
20749;SDS011;10535;50.664;4.564;2022-08-20T14:45:29;2.78;;;0.98;;
20749;SDS011;10535;50.664;4.564;2022-08-20T14:47:56;1.23;;;0.73;;
20749;SDS011;10535;50.664;4.564;2022-08-20T14:50:24;1.30;;;0.80;;
20749;SDS011;10535;50.664;4.564;2022-08-20T14:52:53;2.17;;;0.70;;
20749;SDS011;10535;50.664;4.564;2022-08-20T14:55:20;1.27;;;0.88;;
20749;SDS011;10535;50.664;4.564;2022-08-20T14:57:47;6.32;;;0.90;;
20749;SDS011;10535;50.664;4.564;2022-08-20T15:00:21;3.72;;;1.10;;
20749;SDS011;10535;50.664;4.564;2022-08-20T15:02:50;5.03;;;1.10;;